WEATHER DATA

YESTERDAY
Time Temp. Dewp. Hum. Wind dir Wind speed Wind gust Bar. 1h Prec. 24h Prec.
00:01 -0.5 -1.2 94 168 1.1 2.8 1027.2 0.0000 0.0000
00:12 -0.5 -1.2 94 152 0.8 1.7 1027.2 0.0000 0.0000
00:21 -0.5 -1.2 94 168 0.8 1.9 1027.2 0.0000 0.0000
00:24 -0.5 -1.2 94 164 1.1 5 1027.1 0.0000 0.0000
00:34 -0.5 -1.2 94 161 0.6 1.4 1027.1 0.0000 0.0000
00:44 -0.5 -1.2 94 169 0.8 2.2 1027.2 0.0000 0.0000
00:54 -0.5 -1.2 94 170 1.1 2.8 1027.1 0.0000 0.0000
01:05 -0.4 -1.1 94 166 1.1 3.9 1027 0.0000 0.0000
01:15 -0.4 -1.1 94 164 1.1 2.5 1027.1 0.0000 0.0000
01:34 -0.4 -1.1 94 166 1.4 3.3 1026.9 0.0000 0.0000
01:45 -0.4 -1.1 94 167 0.6 2.2 1026.7 0.0000 0.0000
01:55 -0.4 -1.1 94 180 0.6 1.9 1026.7 0.0000 0.0000
02:15 -0.4 -1.1 94 184 0.6 1.7 1026.6 0.0000 0.0000
02:25 -0.5 -1.2 94 165 0.8 2.2 1026.4 0.0000 0.0000
02:35 -0.5 -1.2 94 165 0.8 3.1 1026.4 0.0000 0.0000
02:56 -0.5 -1.4 93 162 0.8 2.5 1026.2 0.0000 0.0000
03:04 -0.5 -1.4 93 170 1.1 2.5 1026.1 0.0000 0.0000
03:15 -0.5 -1.4 93 163 0.6 1.7 1026.1 0.0000 0.0000
03:25 -0.6 -1.5 93 169 1.1 2.5 1025.9 0.0000 0.0000
03:36 -0.6 -1.5 93 170 0.6 1.4 1026 0.0000 0.0000
03:46 -0.6 -1.5 93 175 0.8 2.5 1025.9 0.0000 0.0000
03:56 -0.6 -1.5 93 167 0.8 1.9 1026 0.0000 0.0000
04:06 -0.6 -1.5 93 178 0.8 1.9 1025.8 0.0000 0.0000
04:16 -0.7 -1.6 93 172 0.8 1.7 1025.9 0.0000 0.0000
04:26 -0.7 -1.6 93 169 0.8 1.7 1025.7 0.0000 0.0000
04:36 -0.7 -1.6 93 168 0.6 1.4 1025.7 0.0000 0.0000
04:47 -0.8 -1.8 92 177 0.8 1.9 1025.5 0.0000 0.0000
04:56 -0.8 -1.8 92 156 0.3 0.8 1025.4 0.0000 0.0000
05:06 -0.8 -1.8 92 157 0.3 0.8 1025.3 0.0000 0.0000
05:17 -0.8 -1.8 92 167 0.6 1.7 1025.4 0.0000 0.0000
05:27 -0.8 -1.8 92 173 0.6 2.8 1025.4 0.0000 0.0000
05:37 -0.8 -1.8 92 171 0.6 3.3 1025.1 0.0000 0.0000
05:47 -0.8 -1.9 91 165 0.6 1.4 1025.2 0.0000 0.0000
05:57 -0.8 -1.9 91 171 0.8 2.2 1025 0.0000 0.0000
06:07 -0.9 -2 91 157 0.6 1.1 1025 0.0000 0.0000
06:17 -0.9 -2 91 145 0.3 1.1 1024.9 0.0000 0.0000
06:27 -0.8 -1.9 91 175 0.6 1.9 1024.8 0.0000 0.0000
06:42 -0.9 -2 91 168 0.6 1.7 1024.8 0.0000 0.0000
06:52 -0.9 -2 91 157 0.3 1.4 1024.7 0.0000 0.0000
07:02 -0.9 -2.2 90 169 0.8 2.5 1024.5 0.0000 0.0000
07:12 -1 -2.3 90 146 1.1 2.5 1024.3 0.0000 0.0000
07:22 -1 -2.3 90 146 1.1 2.5 1024.4 0.0000 0.0000
07:43 -1.2 -2.3 91 182 1.7 2.5 1024.5 0.0000 0.0000
07:53 -1.2 -2.3 91 147 1.1 3.3 1024.5 0.0000 0.0000
08:02 -1.3 -2.4 91 155 1.1 3.1 1024.3 0.0000 0.0000
08:13 -1.3 -2.4 91 161 0.6 1.4 1024.3 0.0000 0.0000
08:23 -1.3 -2.3 92 127 1.1 3.3 1024.4 0.0000 0.0000
08:33 -1.4 -2.4 92 174 0.8 1.9 1024.4 0.0000 0.0000
08:43 -1.4 -2.4 92 162 1.4 3.3 1024.3 0.0000 0.0000
08:53 -1.4 -2.4 92 152 1.1 3.3 1024.4 0.0000 0.0000
09:03 -1.4 -2.4 92 141 1.4 3.3 1024.5 0.0000 0.0000
09:13 -1.4 -2.4 92 142 0.8 2.2 1024.4 0.0000 0.0000
09:23 -1.4 -2.4 92 135 1.1 2.5 1024.5 0.0000 0.0000
09:34 -1.4 -2.4 92 188 1.1 2.8 1024.4 0.0000 0.0000
09:44 -1.4 -2.4 92 147 0.6 1.9 1024.5 0.0000 0.0000
09:53 -1.4 -2.4 92 164 1.4 3.1 1024.7 0.0000 0.0000
10:04 -1.4 -2.4 92 163 0.8 1.9 1024.5 0.0000 0.0000
10:14 -1.4 -2.4 92 156 0.6 1.4 1024.6 0.0000 0.0000
10:24 -1.4 -2.4 92 154 0.8 2.5 1024.5 0.0000 0.0000
10:34 -1.4 -2.4 92 145 0.8 2.2 1024.4 0.0000 0.0000
10:44 -1.4 -2.5 91 128 0.8 1.7 1024.4 0.0000 0.0000
10:54 -1.4 -2.5 91 135 0.8 2.2 1024.4 0.0000 0.0000
11:04 -1.3 -2.4 91 147 0.8 2.8 1024.1 0.0000 0.0000
11:15 -1.3 -2.4 91 155 0.8 2.5 1024 0.0000 0.0000
11:25 -1.3 -2.4 91 135 0.8 1.9 1023.8 0.0000 0.0000
11:35 -1.2 -2.3 91 139 0.8 2.2 1023.7 0.0000 0.0000
11:44 -1.1 -2.2 91 141 0.8 1.7 1023.8 0.0000 0.0000
11:55 -1.1 -2.2 91 137 0.6 1.4 1023.6 0.0000 0.0000
12:05 -1 -2.1 91 158 0.8 1.9 1023.6 0.0000 0.0000
12:15 -0.9 -2 91 152 0.8 2.5 1023.5 0.0000 0.0000
12:25 -0.9 -2 91 152 1.1 2.2 1023.5 0.0000 0.0000
12:35 -0.8 -1.8 92 150 0.8 1.9 1023.3 0.0000 0.0000
12:45 -0.8 -1.8 92 153 1.1 2.8 1023.1 0.0000 0.0000
12:55 -0.8 -1.8 92 136 0.8 1.7 1023.2 0.0000 0.0000
13:06 -0.7 -1.6 93 156 0.8 2.2 1023.1 0.0000 0.0000
13:16 -0.7 -1.6 93 150 1.1 2.5 1023 0.0000 0.0000
13:25 -0.7 -1.6 93 166 0.8 2.2 1022.8 0.0000 0.0000
13:36 -0.7 -1.6 93 146 0.8 1.9 1022.7 0.0000 0.0000
13:46 -0.6 -1.3 94 139 1.1 2.8 1022.7 0.0000 0.0000
13:56 -0.6 -1.3 94 144 1.1 2.8 1022.6 0.0000 0.0000
14:06 -0.6 -1.5 93 131 1.1 2.2 1022.5 0.0000 0.0000
14:17 -0.6 -1.5 93 122 1.1 2.8 1022.6 0.0000 0.0000
14:26 -0.6 -1.5 93 135 0.8 2.2 1022.6 0.0000 0.0000
14:36 -0.6 -1.5 93 133 0.8 1.9 1022.4 0.0000 0.0000
14:46 -0.6 -1.5 93 135 0.6 1.4 1022.4 0.0000 0.0000
14:57 -0.6 -1.5 93 139 1.4 3.1 1022.3 0.0000 0.0000
15:07 -0.7 -1.6 93 137 0.8 1.9 1022.3 0.0000 0.0000
15:16 -0.7 -1.6 93 162 1.1 2.5 1022.3 0.0000 0.0000
15:27 -0.7 -1.6 93 164 0.8 2.2 1022.1 0.0000 0.0000
15:37 -0.7 -1.7 92 133 0.8 1.9 1022.2 0.0000 0.0000
15:47 -0.7 -1.7 92 137 1.1 3.1 1022 0.0000 0.0000
15:57 -0.7 -1.7 92 129 0.6 1.7 1022 0.0000 0.0000
16:08 -0.7 -1.8 91 135 0.8 2.2 1022 0.0000 0.0000
16:17 -0.7 -1.8 91 146 0.6 1.4 1022 0.0000 0.0000
16:27 -0.7 -1.8 91 158 0.6 1.7 1021.9 0.0000 0.0000
16:37 -0.7 -1.8 91 150 0.8 1.7 1021.8 0.0000 0.0000
16:48 -0.7 -2 90 149 1.1 2.2 1021.9 0.0000 0.0000
16:58 -0.6 -1.9 90 162 0.8 2.5 1021.9 0.0000 0.0000
17:07 -0.7 -2 90 139 1.1 2.2 1021.9 0.0000 0.0000
17:18 -0.7 -2.1 89 112 0.6 1.4 1021.8 0.0000 0.0000
17:28 -0.7 -2.1 89 148 1.1 2.2 1021.7 0.0000 0.0000
17:38 -0.7 -2.1 89 138 1.1 4.4 1021.5 0.0000 0.0000
17:48 -0.7 -2.1 89 149 0.6 1.4 1021.4 0.0000 0.0000
17:58 -0.7 -2.1 89 137 1.1 2.5 1021.3 0.0000 0.0000
18:08 -0.7 -2.1 89 124 0.8 2.2 1021.3 0.0000 0.0000
18:18 -0.7 -2.2 88 137 0.8 2.5 1021.3 0.0000 0.0000
18:29 -0.7 -2.2 88 142 0.6 1.7 1021.2 0.0000 0.0000
18:39 -0.7 -2.2 88 113 0.6 1.4 1021.1 0.0000 0.0000
18:48 -0.7 -2.2 88 148 0.8 2.5 1021.2 0.0000 0.0000
18:58 -0.7 -2.2 88 121 0.8 1.4 1021 0.0000 0.0000
19:09 -0.7 -2.2 88 119 0.6 1.9 1021.1 0.0000 0.0000
19:19 -0.7 -2.2 88 125 0.8 2.5 1021.1 0.0000 0.0000
19:29 -0.6 -2.1 88 128 0.8 1.9 1021.1 0.0000 0.0000
19:40 -0.6 -2.1 88 120 1.1 2.2 1020.9 0.0000 0.0000
19:49 -0.6 -2.1 88 135 0.8 1.9 1020.9 0.0000 0.0000
19:59 -0.5 -2 88 136 1.1 2.2 1020.9 0.0000 0.0000
20:09 -0.5 -2 88 144 0.8 2.2 1020.8 0.0000 0.0000
20:20 -0.5 -2 88 153 0.8 1.7 1020.8 0.0000 0.0000
20:30 -0.5 -2 88 138 0.8 2.8 1020.8 0.0000 0.0000
20:39 -0.5 -2 88 127 0.8 2.2 1020.7 0.0000 0.0000
20:50 -0.4 -1.9 88 132 1.1 2.2 1020.7 0.0000 0.0000
21:00 -0.4 -1.9 88 137 1.1 2.5 1020.7 0.0000 0.0000
21:10 -0.3 -1.8 88 122 0.8 1.9 1020.6 0.0000 0.0000
21:20 -0.3 -1.7 89 150 1.1 3.1 1020.6 0.0000 0.0000
21:31 -0.2 -1.6 89 145 0.8 3.3 1020.6 0.0000 0.0000
21:40 -0.2 -1.6 89 122 0.8 1.7 1020.7 0.0000 0.0000
21:50 -0.3 -1.6 90 128 0.6 1.4 1020.6 0.0000 0.0000
22:00 -0.3 -1.4 91 116 0.6 1.1 1020.6 0.0000 0.0000
22:11 -0.4 -1.5 91 90 0.6 1.1 1020.5 0.0000 0.0000
22:21 -0.3 -1.3 92 90 0.3 0.8 1020.4 0.0000 0.0000
22:31 -0.3 -1.3 92 122 0.6 1.4 1020.4 0.0000 0.0000
22:41 -0.2 -1.2 92 119 0.8 1.9 1020.4 0.0000 0.0000
22:51 -0.2 -1.1 93 152 0.8 1.9 1020.3 0.0000 0.0000
23:01 -0.2 -1.1 93 140 0.8 2.2 1020.3 0.0000 0.0000
23:11 -0.2 -1.1 93 132 0.8 1.9 1020.4 0.0000 0.0000
23:22 -0.2 -1.1 93 135 0.8 2.5 1020.3 0.0000 0.0000
23:31 -0.1 -0.8 94 135 0.8 2.2 1020.1 0.0000
23:41 -0.1 -0.8 94 135 0.8 1.4 1020.1 0.0000
23:52 -0.1 -0.8 94 123 0.8 1.9 1020.2 0.0000

DAY STATISTIC

2020-12-03
TEMPERATURE
AVERAGE
-0.7
HIGH
-0.1
23:31
LOW
-1.4
08:33
PRESSURE
AVERAGE
1023.4
HIGH
1027.2
00:01
LOW
1020.1
23:31
DEWPOINT
AVERAGE
-1.8
HIGH
-0.8
23:31
LOW
-2.5
10:44
HUMIDITY
AVERAGE
92
HIGH
94
00:01
LOW
88
18:18
WIND SPEED
AVERAGE
0.8
HIGH
1.7
07:43
WIND GUST
AVERAGE
2.2
HIGH
5.0
00:24
WIND DIRECTION
PREVAILING
SE
64%
N
0.0
NE
0.0
E
2.2
SE
64.0
S
33.8
SW
0.0
W
0.0
NW
0.0
PRECIPITATION
RAIN HOUR
0.0
RAIN DAY
0.0
TEMPERATURE (°C)
LOW
-1.4
HIGH
-0.1
AVERAGE
-0.7
PRESSURE (hpa)
LOW
1020.1
HIGH
1027.2
AVERAGE
1023.4
DEVICE